createdAt,value
2023-01-12T00:02:15.525Z,3.90
2023-01-12T00:06:19.483Z,4.10
2023-01-12T00:10:21.282Z,4.40
2023-01-12T00:14:23.215Z,4.40
2023-01-12T00:18:24.956Z,4.40
2023-01-12T00:22:26.782Z,4.10
2023-01-12T00:26:28.595Z,3.90
2023-01-12T00:30:30.381Z,4.00
2023-01-12T00:34:32.416Z,4.10
2023-01-12T00:38:38.314Z,3.90
2023-01-12T00:42:58.570Z,3.80
2023-01-12T00:47:00.369Z,3.80
2023-01-12T00:51:05.314Z,3.70
2023-01-12T00:55:07.431Z,3.80
2023-01-12T00:59:09.248Z,3.70
2023-01-12T01:03:11.033Z,3.80
2023-01-12T01:07:13.565Z,3.20
2023-01-12T01:11:15.514Z,2.90
2023-01-12T01:15:17.338Z,3.40
2023-01-12T01:19:19.082Z,3.70
2023-01-12T01:23:22.143Z,3.80
2023-01-12T01:27:23.953Z,4.00
2023-01-12T01:31:26.673Z,4.20
2023-01-12T01:35:28.480Z,4.50
2023-01-12T01:39:30.347Z,4.50
2023-01-12T01:43:51.285Z,4.60
2023-01-12T01:47:58.124Z,4.50
2023-01-12T01:52:12.614Z,4.60
2023-01-12T01:56:24.462Z,4.40
2023-01-12T02:00:26.347Z,4.10
2023-01-12T02:04:28.495Z,3.60
2023-01-12T02:08:45.155Z,3.50
2023-01-12T02:13:17.812Z,3.80
2023-01-12T02:17:38.223Z,3.90
2023-01-12T02:21:55.250Z,4.10
2023-01-12T02:26:09.188Z,4.20
2023-01-12T02:30:19.790Z,4.10
2023-01-12T02:34:42.953Z,4.00
2023-01-12T02:38:54.228Z,4.10
2023-01-12T02:43:16.300Z,4.10
2023-01-12T02:47:49.938Z,4.00
2023-01-12T02:51:58.689Z,3.80
2023-01-12T02:56:04.310Z,3.80
2023-01-12T03:00:06.894Z,3.70
2023-01-12T03:04:10.793Z,3.80
2023-01-12T03:08:16.222Z,4.30
2023-01-12T03:12:24.323Z,4.10
2023-01-12T03:16:31.206Z,4.30
2023-01-12T03:20:43.863Z,4.30
2023-01-12T03:24:49.815Z,4.40
2023-01-12T03:28:59.240Z,4.50
2023-01-12T03:33:01.141Z,4.40
2023-01-12T03:37:25.679Z,4.50
2023-01-12T03:41:53.573Z,4.50
2023-01-12T03:46:02.657Z,4.70
2023-01-12T03:50:07.178Z,4.10
2023-01-12T03:54:11.561Z,3.30
2023-01-12T03:58:13.442Z,3.70
2023-01-12T04:02:15.240Z,3.00
2023-01-12T04:06:17.043Z,3.30
2023-01-12T04:10:18.833Z,3.30
2023-01-12T04:14:20.668Z,3.50
2023-01-12T04:18:22.438Z,3.30
2023-01-12T04:22:42.654Z,3.50
2023-01-12T04:26:44.519Z,3.50
2023-01-12T04:30:46.376Z,3.70
2023-01-12T04:34:48.219Z,4.10
2023-01-12T04:38:50.043Z,4.10
2023-01-12T04:43:01.831Z,3.70
2023-01-12T04:47:03.699Z,4.00
2023-01-12T04:51:05.686Z,3.60
2023-01-12T04:55:07.726Z,3.30
2023-01-12T04:59:10.710Z,3.50
2023-01-12T05:03:13.767Z,3.90
2023-01-12T05:07:16.789Z,3.90
2023-01-12T05:11:18.673Z,4.10
2023-01-12T05:15:20.523Z,3.90
2023-01-12T05:19:22.273Z,3.80
2023-01-12T05:23:24.048Z,3.90
2023-01-12T05:27:25.985Z,3.80
2023-01-12T05:31:27.736Z,4.10
2023-01-12T05:35:29.549Z,4.20
2023-01-12T05:39:31.348Z,4.20
2023-01-12T05:43:51.831Z,4.00
2023-01-12T05:48:01.867Z,4.10
2023-01-12T05:52:03.677Z,4.20
2023-01-12T05:56:26.887Z,4.10
2023-01-12T06:00:28.786Z,3.60
2023-01-12T06:04:30.813Z,3.50
2023-01-12T06:08:32.731Z,3.90
2023-01-12T06:12:52.946Z,3.90
2023-01-12T06:16:54.725Z,3.50
2023-01-12T06:20:59.630Z,3.20
2023-01-12T06:25:01.452Z,2.80
2023-01-12T06:29:05.531Z,3.00
2023-01-12T06:33:07.445Z,2.60
2023-01-12T06:37:11.949Z,2.90
2023-01-12T06:41:32.671Z,3.30
2023-01-12T06:45:34.705Z,3.40
2023-01-12T06:49:36.476Z,2.90
2023-01-12T06:53:38.291Z,3.20
2023-01-12T06:57:40.189Z,3.50
2023-01-12T07:01:42.225Z,3.50
2023-01-12T07:05:44.513Z,3.80
2023-01-12T07:09:46.325Z,4.50
2023-01-12T07:13:48.115Z,4.70
2023-01-12T07:17:56.227Z,4.40
2023-01-12T07:21:57.978Z,4.40
2023-01-12T07:25:59.758Z,4.50
2023-01-12T07:30:01.566Z,4.50
2023-01-12T07:34:03.570Z,4.60
2023-01-12T07:38:06.257Z,4.50
2023-01-12T07:42:23.978Z,4.30
2023-01-12T07:46:26.831Z,4.10
2023-01-12T07:50:29.717Z,4.60
2023-01-12T07:54:33.514Z,4.70
2023-01-12T07:58:35.573Z,4.60
2023-01-12T08:02:37.536Z,4.90
2023-01-12T08:06:39.355Z,4.90
2023-01-12T08:10:43.410Z,4.90
2023-01-12T08:14:45.308Z,4.80
2023-01-12T08:19:02.397Z,5.10
2023-01-12T08:23:11.534Z,5.30
2023-01-12T08:27:13.567Z,5.10
2023-01-12T08:31:16.741Z,5.20
2023-01-12T08:35:21.842Z,5.30
2023-01-12T08:39:23.706Z,4.80
2023-01-12T08:43:44.092Z,4.70
2023-01-12T08:47:46.017Z,4.70
2023-01-12T08:51:48.143Z,4.90
2023-01-12T08:55:55.902Z,5.20
2023-01-12T08:59:57.880Z,5.50
2023-01-12T09:04:00.221Z,5.20
2023-01-12T09:08:02.046Z,4.90
2023-01-12T09:12:04.675Z,4.90
2023-01-12T09:16:13.323Z,4.70
2023-01-12T09:20:16.137Z,4.30
2023-01-12T09:24:18.078Z,4.30
2023-01-12T09:28:19.874Z,4.10
2023-01-12T09:32:25.972Z,4.10
2023-01-12T09:36:34.080Z,4.10
2023-01-12T09:40:35.948Z,4.60
2023-01-12T09:45:08.980Z,4.10
2023-01-12T09:49:12.564Z,4.90
2023-01-12T09:53:32.586Z,4.80
2023-01-12T09:57:37.140Z,4.80
2023-01-12T10:01:39.083Z,4.60
2023-01-12T10:05:47.201Z,4.90
2023-01-12T10:09:49.299Z,4.50
2023-01-12T10:14:28.929Z,4.90
2023-01-12T10:18:44.848Z,4.90
2023-01-12T10:22:49.880Z,5.20
2023-01-12T10:27:00.063Z,5.10
2023-01-12T10:31:02.701Z,4.70
2023-01-12T10:35:05.279Z,4.80
2023-01-12T10:39:30.413Z,4.80
2023-01-12T10:43:34.009Z,4.40
2023-01-12T10:47:35.797Z,5.40
2023-01-12T10:51:57.425Z,5.70
2023-01-12T10:55:59.876Z,5.50
2023-01-12T11:00:02.816Z,5.50
2023-01-12T11:04:06.049Z,5.50
2023-01-12T11:08:23.526Z,5.60
2023-01-12T11:12:25.783Z,5.90
2023-01-12T11:16:49.160Z,5.60
2023-01-12T11:20:50.916Z,5.30
2023-01-12T11:24:58.060Z,5.80
2023-01-12T11:29:09.390Z,5.80
2023-01-12T11:33:15.149Z,5.80
2023-01-12T11:37:18.456Z,5.80
2023-01-12T11:41:23.065Z,6.10
2023-01-12T11:45:53.502Z,6.10
2023-01-12T11:50:07.753Z,5.80
2023-01-12T11:54:16.660Z,5.90
2023-01-12T11:58:39.009Z,5.90
2023-01-12T12:02:54.905Z,6.20
2023-01-12T12:07:21.186Z,5.80
2023-01-12T12:11:36.723Z,5.30
2023-01-12T12:15:52.338Z,5.30
2023-01-12T12:20:33.144Z,5.50
2023-01-12T12:24:40.550Z,5.90
2023-01-12T12:29:10.848Z,6.00
2023-01-12T12:33:24.524Z,5.70
2023-01-12T12:37:58.734Z,5.90
2023-01-12T12:42:40.184Z,6.10
2023-01-12T12:47:23.290Z,5.80
2023-01-12T12:51:26.722Z,5.80
2023-01-12T12:55:28.571Z,5.40
2023-01-12T12:59:33.490Z,5.50
2023-01-12T13:03:41.568Z,5.40
2023-01-12T13:07:51.113Z,5.90
2023-01-12T13:11:59.624Z,5.20
2023-01-12T13:16:19.214Z,5.40
2023-01-12T13:20:49.771Z,5.40
2023-01-12T13:24:52.857Z,5.90
2023-01-12T13:29:28.952Z,6.10
2023-01-12T13:33:30.825Z,6.20
2023-01-12T13:37:51.822Z,5.90
2023-01-12T13:42:12.470Z,5.90
2023-01-12T13:46:18.283Z,6.00
2023-01-12T13:50:23.705Z,6.10
2023-01-12T13:54:25.641Z,6.70
2023-01-12T13:58:29.083Z,6.80
2023-01-12T14:02:32.838Z,6.40
2023-01-12T14:06:56.494Z,6.50
2023-01-12T14:11:24.314Z,6.40
2023-01-12T14:16:00.264Z,6.50
2023-01-12T14:20:02.190Z,6.40
2023-01-12T14:24:24.916Z,6.50
2023-01-12T14:28:26.717Z,6.30
2023-01-12T14:32:28.563Z,6.30
2023-01-12T14:36:50.726Z,6.00
2023-01-12T14:40:58.493Z,6.20
2023-01-12T14:45:18.999Z,6.60
2023-01-12T14:49:20.844Z,7.10
2023-01-12T14:53:33.142Z,7.20
2023-01-12T14:57:36.279Z,6.80
2023-01-12T15:01:38.800Z,6.90
2023-01-12T15:05:42.091Z,6.90
2023-01-12T15:10:16.299Z,7.00
2023-01-12T15:14:29.029Z,6.80
2023-01-12T15:18:49.553Z,7.20
2023-01-12T15:23:09.908Z,7.10
2023-01-12T15:27:13.852Z,6.90
2023-01-12T15:31:28.791Z,7.20
2023-01-12T15:35:32.216Z,6.60
2023-01-12T15:39:34.036Z,6.50
2023-01-12T15:43:35.828Z,6.70
2023-01-12T15:47:37.592Z,6.60
2023-01-12T15:51:40.270Z,6.60
2023-01-12T15:55:42.188Z,6.60
2023-01-12T15:59:44.066Z,6.50
2023-01-12T16:04:05.208Z,6.50
2023-01-12T16:08:08.171Z,6.40
2023-01-12T16:12:10.553Z,6.10
2023-01-12T16:16:16.219Z,6.20
2023-01-12T16:20:19.864Z,6.50
2023-01-12T16:24:24.072Z,6.70
2023-01-12T16:28:27.057Z,6.70
2023-01-12T16:32:28.894Z,6.80
2023-01-12T16:36:30.660Z,6.20
2023-01-12T16:40:32.626Z,5.70
2023-01-12T16:44:40.175Z,5.70
2023-01-12T16:48:42.430Z,6.10
2023-01-12T16:52:44.259Z,6.30
2023-01-12T16:56:46.096Z,6.30
2023-01-12T17:00:47.948Z,6.70
2023-01-12T17:04:52.059Z,6.50
2023-01-12T17:08:54.781Z,6.50
2023-01-12T17:13:01.917Z,6.30
2023-01-12T17:17:07.689Z,6.60
2023-01-12T17:21:12.885Z,6.10
2023-01-12T17:25:15.867Z,6.40
2023-01-12T17:29:18.540Z,6.30
2023-01-12T17:33:20.545Z,6.70
2023-01-12T17:37:24.651Z,6.90
2023-01-12T17:41:45.522Z,6.90
2023-01-12T17:45:47.416Z,6.60
2023-01-12T17:49:49.297Z,6.60
2023-01-12T17:54:01.773Z,6.80
2023-01-12T17:58:04.690Z,6.60
2023-01-12T18:02:07.341Z,6.40
2023-01-12T18:06:15.030Z,6.20
2023-01-12T18:10:20.847Z,6.70
2023-01-12T18:14:24.852Z,6.70
2023-01-12T18:18:26.961Z,6.20
2023-01-12T18:22:28.877Z,6.30
2023-01-12T18:26:35.704Z,6.70
2023-01-12T18:30:37.628Z,6.60
2023-01-12T18:34:42.696Z,6.60
2023-01-12T18:38:45.073Z,6.20
2023-01-12T18:42:54.439Z,6.70
2023-01-12T18:47:16.771Z,6.80
2023-01-12T18:51:44.916Z,6.70
2023-01-12T18:55:48.078Z,6.80
2023-01-12T18:59:52.556Z,7.00
2023-01-12T19:03:54.311Z,7.00
2023-01-12T19:07:59.123Z,7.00
2023-01-12T19:12:05.884Z,6.90
2023-01-12T19:16:31.289Z,6.80
2023-01-12T19:20:35.845Z,6.70
2023-01-12T19:24:56.355Z,6.70
2023-01-12T19:28:58.120Z,6.70
2023-01-12T19:33:01.048Z,6.70
2023-01-12T19:37:02.889Z,6.60
2023-01-12T19:41:30.059Z,6.00
2023-01-12T19:45:32.253Z,6.20
2023-01-12T19:49:34.019Z,6.50
2023-01-12T19:53:35.889Z,6.40
2023-01-12T19:57:38.613Z,6.30
2023-01-12T20:01:40.625Z,6.60
2023-01-12T20:05:43.913Z,6.30
2023-01-12T20:09:47.753Z,6.40
2023-01-12T20:13:49.637Z,6.20
2023-01-12T20:17:51.560Z,6.30
2023-01-12T20:21:54.437Z,6.60
2023-01-12T20:25:56.224Z,6.40
2023-01-12T20:29:58.311Z,6.40
2023-01-12T20:34:00.439Z,6.50
2023-01-12T20:38:04.072Z,6.20
2023-01-12T20:42:06.039Z,6.20
2023-01-12T20:46:12.972Z,6.60
2023-01-12T20:50:17.799Z,6.70
2023-01-12T20:54:20.363Z,6.90
2023-01-12T20:58:22.196Z,6.80
2023-01-12T21:02:25.799Z,6.90
2023-01-12T21:06:27.776Z,7.10
2023-01-12T21:10:29.633Z,6.90
2023-01-12T21:14:32.323Z,6.70
2023-01-12T21:18:34.983Z,6.50
2023-01-12T21:22:36.810Z,6.60
2023-01-12T21:26:38.784Z,6.60
2023-01-12T21:30:40.934Z,6.60
2023-01-12T21:34:42.803Z,7.10
2023-01-12T21:38:48.855Z,7.20
2023-01-12T21:43:09.141Z,7.20
2023-01-12T21:47:10.974Z,7.00
2023-01-12T21:51:14.707Z,6.90
2023-01-12T21:55:18.808Z,6.30
2023-01-12T21:59:20.598Z,6.30
2023-01-12T22:03:26.760Z,6.00
2023-01-12T22:07:28.650Z,6.10
2023-01-12T22:11:30.455Z,6.00
2023-01-12T22:15:33.662Z,5.90
2023-01-12T22:19:36.601Z,5.80
2023-01-12T22:23:39.626Z,5.60
2023-01-12T22:27:41.906Z,5.10
2023-01-12T22:31:43.719Z,5.50
2023-01-12T22:35:45.578Z,5.30
2023-01-12T22:39:47.538Z,5.70
2023-01-12T22:43:49.660Z,5.90
2023-01-12T22:47:53.521Z,5.60
2023-01-12T22:51:56.084Z,5.80
2023-01-12T22:56:00.583Z,5.80
2023-01-12T23:00:02.581Z,5.70
2023-01-12T23:04:04.605Z,5.90
2023-01-12T23:08:06.914Z,6.00
2023-01-12T23:12:08.647Z,6.10
2023-01-12T23:16:13.421Z,5.80
2023-01-12T23:20:15.367Z,5.80
2023-01-12T23:24:17.137Z,5.90
2023-01-12T23:28:18.885Z,5.90
2023-01-12T23:32:20.647Z,5.60
2023-01-12T23:36:24.366Z,5.50
2023-01-12T23:40:26.127Z,5.70
2023-01-12T23:44:27.956Z,6.00
2023-01-12T23:48:30.940Z,6.10
2023-01-12T23:52:32.737Z,6.30
2023-01-12T23:56:34.847Z,6.20
